Time;durP1;ratioP1;P1;durP2;ratioP2;P2;SDS_P1;SDS_P2;PMS_P1;PMS_P2;Temp;Humidity;BMP_temperature;BMP_pressure;BME280_temperature;BME280_humidity;BME280_pressure;Samples;Min_cycle;Max_cycle;Signal;HPM_P1;HPM_P2
2022/06/26 00:02:55;;;;;;;27.65;20.70;;;;;;;17.62;100.00;101101.19;10180872;29;20044;-65
2022/06/26 00:07:56;;;;;;;26.08;21.38;;;;;;;17.60;100.00;101102.63;10195415;28;20032;-65
2022/06/26 00:12:56;;;;;;;24.10;21.45;;;;;;;17.37;100.00;101059.75;10220601;28;20044;-65
2022/06/26 00:17:56;;;;;;;29.75;24.45;;;;;;;17.52;100.00;101095.75;10219976;28;20063;-65
2022/06/26 00:22:57;;;;;;;26.13;22.95;;;;;;;17.45;100.00;101087.75;10220412;28;20043;-65
2022/06/26 00:27:57;;;;;;;27.27;23.27;;;;;;;17.41;100.00;101086.69;10203500;28;20127;-65
2022/06/26 00:32:58;;;;;;;33.53;26.38;;;;;;;17.33;100.00;101084.56;10217143;28;20080;-65
2022/06/26 00:37:58;;;;;;;32.83;26.55;;;;;;;17.33;100.00;101084.56;10181225;28;20037;-64
2022/06/26 00:42:59;;;;;;;34.55;27.52;;;;;;;17.30;100.00;101087.91;10218515;28;20051;-65
2022/06/26 00:47:59;;;;;;;34.45;28.23;;;;;;;17.25;100.00;101088.78;10204703;28;20044;-66
2022/06/26 00:53:00;;;;;;;39.28;29.55;;;;;;;17.21;100.00;101089.69;10178465;29;20093;-65
2022/06/26 00:58:00;;;;;;;40.38;33.05;;;;;;;17.15;100.00;101084.16;10177592;29;20489;-66
2022/06/26 01:03:01;;;;;;;40.80;31.98;;;;;;;17.12;100.00;101078.38;10178207;29;20036;-65
2022/06/26 01:08:02;;;;;;;37.63;32.30;;;;;;;17.05;100.00;101075.94;10210554;28;20122;-63
2022/06/26 01:13:03;;;;;;;44.38;34.28;;;;;;;16.98;100.00;101072.66;10185673;29;20051;-64
2022/06/26 01:18:03;;;;;;;47.95;38.80;;;;;;;16.87;100.00;101062.75;10168839;28;20085;-65
2022/06/26 01:23:04;;;;;;;46.47;37.35;;;;;;;16.88;100.00;101070.78;10195041;28;20074;-65
2022/06/26 01:28:05;;;;;;;52.67;39.47;;;;;;;16.73;100.00;101060.63;10182813;28;20111;-64
2022/06/26 01:33:06;;;;;;;53.10;37.45;;;;;;;16.74;100.00;101070.63;10193443;29;20197;-65
2022/06/26 01:38:26;;;;;;;45.92;34.72;;;;;;;16.68;100.00;101073.72;10192304;29;20061;-64
2022/06/26 01:43:29;;;;;;;52.40;37.35;;;;;;;16.62;100.00;101064.59;10176826;29;20041;-65
2022/06/26 01:48:30;;;;;;;49.30;37.28;;;;;;;16.58;100.00;101063.53;10214551;28;20043;-65
2022/06/26 01:53:32;;;;;;;46.33;36.33;;;;;;;16.55;100.00;101059.34;10214881;28;20161;-65
2022/06/26 01:58:33;;;;;;;44.25;34.22;;;;;;;16.55;100.00;101061.31;10175636;29;20055;-65
2022/06/26 02:03:33;;;;;;;44.88;36.72;;;;;;;16.55;100.00;101058.53;10159742;29;20059;-65
2022/06/26 02:08:34;;;;;;;45.00;37.83;;;;;;;16.58;100.00;101065.47;10178606;28;20043;-65
2022/06/26 02:13:39;;;;;;;58.05;40.78;;;;;;;16.62;100.00;101099.91;10215629;28;20035;-65
2022/06/26 02:18:40;;;;;;;46.92;37.20;;;;;;;16.70;100.00;101122.38;10215746;28;20052;-66
2022/06/26 02:23:41;;;;;;;40.97;33.70;;;;;;;17.01;100.00;101138.84;10215031;28;20043;-65
2022/06/26 02:28:41;;;;;;;36.83;30.17;;;;;;;17.23;100.00;101143.09;10198959;28;20342;-64
2022/06/26 02:33:42;;;;;;;35.63;26.88;;;;;;;17.29;100.00;101155.81;10214804;28;20072;-64
2022/06/26 02:38:42;;;;;;;32.80;26.85;;;;;;;17.46;100.00;101184.03;10180557;28;20051;-65
2022/06/26 02:43:43;;;;;;;31.35;25.10;;;;;;;17.51;100.00;101161.72;10175807;29;20055;-64
2022/06/26 02:48:44;;;;;;;27.92;22.42;;;;;;;17.57;100.00;101156.09;10174923;29;20370;-65
2022/06/26 02:53:45;;;;;;;28.17;21.70;;;;;;;17.57;100.00;101140.25;10175585;29;20063;-65
2022/06/26 02:58:46;;;;;;;25.33;22.48;;;;;;;17.57;100.00;101128.25;10176934;29;20468;-65
2022/06/26 03:03:46;;;;;;;30.58;23.63;;;;;;;17.58;100.00;101127.16;10206746;28;20067;-65
2022/06/26 03:08:47;;;;;;;23.90;19.30;;;;;;;17.59;100.00;101126.00;10221746;28;20055;-65
2022/06/26 03:13:47;;;;;;;28.35;19.15;;;;;;;17.58;100.00;101118.81;10221656;28;20043;-65
2022/06/26 03:18:48;;;;;;;26.05;20.60;;;;;;;17.60;100.00;101110.97;10192537;28;20047;-65
2022/06/26 03:24:03;;;;;;;31.33;21.27;;;;;;;17.60;100.00;101110.97;10182928;29;20627;-65
2022/06/26 03:29:05;;;;;;;25.58;21.33;;;;;;;17.54;100.00;101133.28;10185310;29;20044;-64
2022/06/26 03:34:06;;;;;;;27.42;21.63;;;;;;;17.53;100.00;101144.75;10204105;28;20036;-64
2022/06/26 03:39:06;;;;;;;22.67;18.00;;;;;;;17.47;100.00;101152.31;10180111;29;20436;-65
2022/06/26 03:44:07;;;;;;;22.33;16.67;;;;;;;17.38;100.00;101147.66;10218298;28;20043;-66
2022/06/26 03:49:07;;;;;;;24.48;17.38;;;;;;;17.39;100.00;101133.47;10196082;28;20664;-66
2022/06/26 03:54:09;;;;;;;20.90;14.73;;;;;;;17.17;100.00;101155.38;10182218;29;20032;-66
2022/06/26 03:59:09;;;;;;;12.52;10.55;;;;;;;17.08;100.00;101169.09;10180963;29;20470;-66
2022/06/26 04:04:10;;;;;;;15.75;10.52;;;;;;;17.00;100.00;101178.06;10181192;29;20063;-66
2022/06/26 04:09:10;;;;;;;12.05;9.45;;;;;;;16.90;100.00;101174.22;10202710;28;20492;-66
2022/06/26 04:14:11;;;;;;;10.82;8.85;;;;;;;16.96;100.00;101179.75;10198286;28;20087;-67
2022/06/26 04:19:11;;;;;;;12.77;8.85;;;;;;;16.98;100.00;101195.03;10200055;28;20047;-64
2022/06/26 04:24:12;;;;;;;11.98;9.23;;;;;;;17.05;100.00;101192.78;10221142;28;20039;-66
2022/06/26 04:29:12;;;;;;;10.63;9.27;;;;;;;17.17;100.00;101208.25;10219490;28;20051;-66
2022/06/26 04:34:13;;;;;;;11.80;8.82;;;;;;;17.28;100.00;101209.81;10219374;28;20070;-67
2022/06/26 04:39:13;;;;;;;13.07;8.13;;;;;;;17.33;100.00;101201.44;10202649;28;20036;-66
2022/06/26 04:44:14;;;;;;;7.47;5.47;;;;;;;17.29;100.00;101208.69;10216975;28;20063;-66
2022/06/26 04:49:14;;;;;;;6.30;5.65;;;;;;;17.22;100.00;101214.59;10216331;28;20039;-66
2022/06/26 04:54:15;;;;;;;9.40;5.32;;;;;;;17.20;100.00;101236.31;10180154;28;20036;-66
2022/06/26 04:59:15;;;;;;;6.32;5.20;;;;;;;17.17;100.00;101241.63;10217564;28;20064;-66
2022/06/26 05:04:16;;;;;;;11.63;6.75;;;;;;;17.12;100.00;101243.31;10218435;28;20044;-67
2022/06/26 05:09:16;;;;;;;15.95;6.65;;;;;;;16.79;100.00;101210.72;10185877;28;20048;-64
2022/06/26 05:14:17;;;;;;;5.60;4.70;;;;;;;17.08;100.00;101264.50;10178839;29;20110;-65
2022/06/26 05:19:18;;;;;;;5.97;4.35;;;;;;;17.08;100.00;101270.06;10207034;28;20551;-66
2022/06/26 05:24:18;;;;;;;4.28;3.88;;;;;;;17.08;100.00;101261.72;10218452;28;20052;-65
2022/06/26 05:29:19;;;;;;;5.43;4.15;;;;;;;17.17;100.00;101278.63;10214823;28;20046;-66
2022/06/26 05:34:19;;;;;;;5.30;4.72;;;;;;;17.24;100.00;101283.84;10215222;28;20059;-66
2022/06/26 05:39:20;;;;;;;6.93;4.50;;;;;;;17.40;100.00;101298.50;10215121;28;20487;-65
2022/06/26 05:44:20;;;;;;;4.80;3.90;;;;;;;17.52;100.00;101313.69;10215771;28;20047;-66
2022/06/26 05:49:21;;;;;;;5.35;3.60;;;;;;;17.68;100.00;101311.63;10215128;28;20032;-65
2022/06/26 05:54:21;;;;;;;6.40;4.40;;;;;;;17.89;100.00;101301.16;10200439;28;20047;-66
2022/06/26 05:59:22;;;;;;;6.68;5.13;;;;;;;18.05;100.00;101324.13;10176285;29;20052;-65
2022/06/26 06:04:22;;;;;;;7.75;4.18;;;;;;;18.01;100.00;101323.06;10177847;29;20092;-63
2022/06/26 06:09:23;;;;;;;5.03;4.53;;;;;;;18.19;100.00;101341.00;10177682;29;20051;-66
2022/06/26 06:14:23;;;;;;;5.95;4.47;;;;;;;18.34;100.00;101331.66;10214024;28;20071;-65
2022/06/26 06:19:24;;;;;;;7.20;5.72;;;;;;;18.30;100.00;101331.41;10180784;29;20038;-66
2022/06/26 06:24:24;;;;;;;7.70;5.43;;;;;;;18.71;100.00;101341.25;10213362;28;20043;-66
2022/06/26 06:29:25;;;;;;;7.13;5.68;;;;;;;19.11;100.00;101327.91;10215285;28;20039;-65
2022/06/26 06:34:25;;;;;;;8.27;6.70;;;;;;;19.40;100.00;101333.34;10182100;28;20033;-65
2022/06/26 06:39:26;;;;;;;10.20;7.13;;;;;;;19.22;100.00;101339.75;10175174;29;20040;-65
2022/06/26 06:44:27;;;;;;;7.88;6.95;;;;;;;19.03;100.00;101337.78;10184891;29;20052;-65
2022/06/26 06:49:28;;;;;;;9.95;8.52;;;;;;;18.94;100.00;101361.91;10183822;29;20036;-66
2022/06/26 06:54:28;;;;;;;10.52;8.73;;;;;;;19.17;100.00;101364.97;10187184;28;20029;-65
2022/06/26 06:59:29;;;;;;;9.73;8.52;;;;;;;19.36;100.00;101354.63;10224385;28;20035;-65
2022/06/26 07:04:29;;;;;;;10.25;9.15;;;;;;;19.53;100.00;101359.66;10220354;28;20040;-65
2022/06/26 07:09:30;;;;;;;11.27;9.73;;;;;;;19.41;100.00;101379.69;10182956;29;20028;-65
2022/06/26 07:14:30;;;;;;;11.25;9.55;;;;;;;19.38;100.00;101374.69;10223036;28;20063;-66
2022/06/26 07:19:31;;;;;;;9.85;8.85;;;;;;;19.35;100.00;101378.91;10183311;29;20048;-65
2022/06/26 07:24:32;;;;;;;13.75;12.30;;;;;;;19.59;100.00;101388.34;10183146;29;20059;-66
2022/06/26 07:29:32;;;;;;;12.00;9.93;;;;;;;19.87;100.00;101400.50;10183968;29;20036;-65
2022/06/26 07:34:33;;;;;;;12.27;9.57;;;;;;;20.02;100.00;101417.00;10182452;29;20394;-65
2022/06/26 07:39:33;;;;;;;12.30;11.10;;;;;;;20.05;100.00;101418.34;10236021;28;20499;-65
2022/06/26 07:44:33;;;;;;;15.82;12.38;;;;;;;20.10;100.00;101418.28;10222267;28;20043;-65
2022/06/26 07:49:34;;;;;;;16.90;13.43;;;;;;;20.16;100.00;101419.88;10220951;28;20067;-66
2022/06/26 07:54:34;;;;;;;18.05;12.20;;;;;;;20.48;100.00;101426.56;10220511;28;20042;-65
2022/06/26 07:59:35;;;;;;;12.35;11.13;;;;;;;20.70;100.00;101434.28;10220509;28;20043;-65
2022/06/26 08:04:35;;;;;;;12.82;10.77;;;;;;;21.12;100.00;101438.75;10221237;28;20067;-65
2022/06/26 08:09:36;;;;;;;16.70;12.80;;;;;;;20.72;100.00;101438.44;10232323;28;20046;-66
2022/06/26 08:14:36;;;;;;;16.75;13.00;;;;;;;20.58;100.00;101447.91;10239239;28;20086;-65
2022/06/26 08:19:37;;;;;;;13.55;11.65;;;;;;;21.00;100.00;101441.25;10235130;28;20043;-65
2022/06/26 08:24:39;;;;;;;14.02;10.88;;;;;;;21.43;100.00;101432.50;10236455;28;20054;-63
2022/06/26 08:29:40;;;;;;;13.60;11.43;;;;;;;21.62;100.00;101448.34;10197959;28;20036;-65
2022/06/26 08:34:41;;;;;;;14.55;13.07;;;;;;;21.14;100.00;101439.25;10217174;28;20035;-65
2022/06/26 08:39:42;;;;;;;12.88;11.45;;;;;;;21.53;100.00;101451.06;10217853;28;20091;-66
2022/06/26 08:44:44;;;;;;;13.80;10.82;;;;;;;21.69;100.00;101454.34;10217455;28;20048;-65
2022/06/26 08:49:44;;;;;;;10.85;9.75;;;;;;;21.67;100.00;101456.66;10218028;28;20122;-65
2022/06/26 08:54:45;;;;;;;11.77;8.20;;;;;;;21.65;100.00;101464.53;10220726;28;20058;-65
2022/06/26 08:59:45;;;;;;;8.60;7.70;;;;;;;22.30;100.00;101474.47;10217490;28;20083;-65
2022/06/26 09:04:46;;;;;;;7.82;6.40;;;;;;;22.40;100.00;101479.00;10218439;28;20525;-65
2022/06/26 09:09:46;;;;;;;9.80;5.93;;;;;;;22.62;100.00;101490.22;10216681;28;20039;-66
2022/06/26 09:14:51;;;;;;;6.95;4.82;;;;;;;22.00;100.00;101495.69;10218050;28;20076;-66
2022/06/26 09:19:51;;;;;;;8.60;5.95;;;;;;;21.81;100.00;101505.09;10218608;28;20048;-65
2022/06/26 09:24:54;;;;;;;4.65;3.90;;;;;;;22.03;100.00;101490.25;10218309;28;20071;-66
2022/06/26 09:29:55;;;;;;;3.63;3.10;;;;;;;22.49;100.00;101494.75;10216341;28;20071;-65
2022/06/26 09:34:56;;;;;;;4.07;3.10;;;;;;;23.12;100.00;101498.41;10199523;28;20044;-65
2022/06/26 09:40:00;;;;;;;3.83;2.80;;;;;;;23.34;100.00;101519.16;10216102;28;20059;-73
2022/06/26 09:45:01;;;;;;;4.18;2.60;;;;;;;23.42;97.53;101497.81;10198031;28;20036;-73
2022/06/26 09:50:03;;;;;;;5.97;2.58;;;;;;;23.10;96.91;101447.34;10199339;28;20035;-73
2022/06/26 09:55:05;;;;;;;4.72;2.20;;;;;;;23.49;97.68;101493.41;10167469;28;20067;-74
2022/06/26 10:00:06;;;;;;;3.90;2.35;;;;;;;22.97;97.78;101352.81;10180712;28;20039;-74
2022/06/26 10:10:34;;;;;;;3.13;2.33;;;;;;;23.93;94.63;101497.13;10212640;28;20035;-73
2022/06/26 10:15:40;;;;;;;3.83;1.92;;;;;;;24.46;96.44;101497.09;10133975;29;20308;-75
2022/06/26 10:20:41;;;;;;;2.40;1.80;;;;;;;24.74;87.61;101491.91;10163509;28;20071;-76
2022/06/26 10:25:43;;;;;;;3.85;1.58;;;;;;;24.61;85.44;101484.50;10178726;28;20118;-73
2022/06/26 10:30:44;;;;;;;3.70;1.60;;;;;;;24.16;83.36;101491.31;10184373;28;20447;-73
2022/06/26 10:35:46;;;;;;;3.97;1.38;;;;;;;24.02;85.07;101491.50;10196175;28;20446;-74
2022/06/26 10:46:06;;;;;;;3.05;1.60;;;;;;;24.47;81.89;101487.47;10200478;28;20040;-74
2022/06/26 10:51:07;;;;;;;3.05;1.65;;;;;;;24.41;83.65;101500.06;10197298;28;20388;-77
2022/06/26 10:56:08;;;;;;;2.63;1.35;;;;;;;24.43;80.76;101483.69;10181648;28;20059;-76
2022/06/26 11:01:09;;;;;;;3.40;1.48;;;;;;;24.36;81.17;101476.56;10163694;28;20036;-78
2022/06/26 11:06:14;;;;;;;3.50;1.42;;;;;;;24.29;84.29;101490.34;10180606;28;20044;-76
2022/06/26 11:11:20;;;;;;;4.88;1.80;;;;;;;24.68;79.89;101480.03;10156566;29;20044;-75
2022/06/26 11:16:33;;;;;;;2.47;1.30;;;;;;;25.05;80.87;101483.16;10165301;28;20044;-76
2022/06/26 11:21:33;;;;;;;3.38;1.60;;;;;;;24.88;75.57;101474.81;10195649;28;20571;-76
2022/06/26 11:26:34;;;;;;;2.95;1.35;;;;;;;24.61;82.38;101470.44;10193291;28;20048;-76
2022/06/26 11:31:34;;;;;;;2.70;1.17;;;;;;;25.32;77.86;101470.66;10186208;28;20037;-75
2022/06/26 11:36:35;;;;;;;2.78;1.35;;;;;;;25.77;76.37;101477.63;10172591;28;20043;-75
2022/06/26 11:41:35;;;;;;;2.53;1.45;;;;;;;25.29;74.84;101476.94;10186188;28;20051;-75
2022/06/26 11:46:36;;;;;;;3.97;2.00;;;;;;;25.19;77.71;101482.94;10169483;28;20040;-75
2022/06/26 11:51:37;;;;;;;2.83;1.40;;;;;;;25.70;76.40;101483.81;10185331;28;20494;-77
2022/06/26 11:56:37;;;;;;;1.55;1.45;;;;;;;26.32;75.72;101475.69;10200238;28;20044;-76
2022/06/26 12:01:38;;;;;;;3.13;1.42;;;;;;;27.46;69.50;101472.34;10200298;28;20044;-77
2022/06/26 12:06:40;;;;;;;5.57;1.60;;;;;;;27.46;67.91;101442.06;10186050;28;20122;-74
2022/06/26 12:11:41;;;;;;;2.38;1.17;;;;;;;27.25;68.49;101476.13;10186160;28;20031;-73
2022/06/26 12:16:49;;;;;;;2.75;1.23;;;;;;;27.55;66.62;101425.81;10186160;28;20036;-74
2022/06/26 12:21:51;;;;;;;1.80;1.33;;;;;;;27.70;66.81;101465.81;10205758;28;20051;-75
2022/06/26 12:26:52;;;;;;;3.80;1.60;;;;;;;26.87;67.98;101496.22;10180000;28;20056;-73
2022/06/26 12:31:52;;;;;;;4.68;1.77;;;;;;;26.47;67.53;101491.16;10169163;28;20039;-74
2022/06/26 12:36:53;;;;;;;4.80;1.80;;;;;;;26.21;68.78;101503.53;10185354;28;20028;-75
2022/06/26 12:41:53;;;;;;;1.85;1.20;;;;;;;25.41;69.94;101514.88;10182981;28;20040;-74
2022/06/26 12:46:55;;;;;;;1.70;1.25;;;;;;;25.40;67.22;101491.47;10200397;28;20036;-75
2022/06/26 12:51:56;;;;;;;4.28;1.10;;;;;;;25.08;66.55;101496.59;10193761;28;20032;-74
2022/06/26 12:56:56;;;;;;;4.32;1.50;;;;;;;25.22;69.54;101499.22;10163286;28;20048;-74
2022/06/26 13:01:57;;;;;;;3.63;1.10;;;;;;;24.72;64.99;101478.19;10184232;28;20051;-75
2022/06/26 13:06:57;;;;;;;1.85;0.98;;;;;;;24.25;66.12;101486.53;10178689;28;20043;-74
2022/06/26 13:11:58;;;;;;;3.58;1.00;;;;;;;24.22;67.50;101520.94;10183270;28;20084;-74
2022/06/26 13:16:58;;;;;;;2.95;1.40;;;;;;;24.15;70.88;101549.56;10173184;28;20032;-75
2022/06/26 13:21:59;;;;;;;2.30;1.10;;;;;;;24.08;69.12;101539.97;10197157;28;20046;-73
2022/06/26 13:26:59;;;;;;;3.35;1.30;;;;;;;24.00;71.13;101540.78;10166817;28;20031;-74
2022/06/26 13:32:00;;;;;;;2.97;1.17;;;;;;;24.15;73.59;101532.69;10166801;28;20046;-75
2022/06/26 13:37:01;;;;;;;2.20;1.48;;;;;;;24.55;70.95;101534.50;10181812;28;20564;-74
2022/06/26 13:42:01;;;;;;;7.35;3.63;;;;;;;24.69;74.08;101552.03;10181118;28;20051;-75
2022/06/26 13:47:02;;;;;;;3.30;1.33;;;;;;;24.53;71.37;101559.34;10213653;28;20036;-74
2022/06/26 13:52:03;;;;;;;1.92;1.05;;;;;;;24.11;74.36;101581.53;10181021;28;20047;-75
2022/06/26 13:57:04;;;;;;;3.92;1.50;;;;;;;24.08;72.29;101562.47;10213243;28;20058;-76
2022/06/26 14:02:05;;;;;;;4.15;1.50;;;;;;;24.21;76.28;101592.44;10165512;28;20586;-76
2022/06/26 14:07:05;;;;;;;2.88;1.65;;;;;;;24.47;75.18;101583.16;10173723;28;20050;-76
2022/06/26 14:12:06;;;;;;;3.55;1.75;;;;;;;24.29;74.13;101559.81;10218417;28;20035;-76
2022/06/26 14:17:06;;;;;;;4.15;1.30;;;;;;;24.26;73.06;101575.38;10170326;28;20044;-77
2022/06/26 14:27:26;;;;;;;2.45;1.50;;;;;;;23.94;74.86;101569.09;10163076;29;20059;-76
2022/06/26 14:32:26;;;;;;;3.35;1.88;;;;;;;23.68;76.89;101549.31;10179108;28;20044;-77
2022/06/26 14:37:27;;;;;;;4.90;1.63;;;;;;;23.75;79.08;101546.00;10176156;28;20054;-75
2022/06/26 14:42:28;;;;;;;5.18;1.83;;;;;;;23.85;78.21;101531.69;10181561;28;20031;-77
2022/06/26 14:47:28;;;;;;;4.60;1.80;;;;;;;23.81;78.07;101510.19;10163794;28;20154;-77
2022/06/26 14:52:29;;;;;;;6.57;1.55;;;;;;;24.06;78.44;101522.59;10164783;28;20068;-77
2022/06/26 14:57:29;;;;;;;9.32;3.08;;;;;;;24.24;80.65;101524.25;10171566;28;20035;-76
2022/06/26 15:02:30;;;;;;;4.53;1.70;;;;;;;23.97;80.60;101537.47;10189022;28;20048;-75
2022/06/26 15:07:30;;;;;;;4.45;1.75;;;;;;;23.30;79.49;101490.06;10172981;28;20055;-75
2022/06/26 15:12:31;;;;;;;4.70;2.33;;;;;;;23.44;82.77;101555.38;10160235;28;20047;-76
2022/06/26 15:17:31;;;;;;;3.45;1.90;;;;;;;22.90;83.02;101532.13;10180154;28;20040;-76
2022/06/26 15:22:32;;;;;;;3.85;2.60;;;;;;;22.81;84.93;101556.53;10175099;28;20531;-75
2022/06/26 15:27:33;;;;;;;8.07;2.95;;;;;;;22.60;85.02;101554.25;10126911;28;20055;-76
2022/06/26 15:32:33;;;;;;;6.90;2.22;;;;;;;22.37;88.10;101573.06;10184753;28;20514;-75
2022/06/26 15:37:34;;;;;;;4.65;2.67;;;;;;;22.29;94.40;101574.63;10175201;28;20165;-77
2022/06/26 15:42:34;;;;;;;5.93;2.25;;;;;;;22.20;91.13;101570.91;10131479;28;20035;-78
2022/06/26 15:47:35;;;;;;;3.63;2.00;;;;;;;22.05;90.95;101551.63;10169212;28;21707;-76
2022/06/26 15:52:36;;;;;;;3.22;2.00;;;;;;;22.08;90.96;101559.41;10178698;28;20094;-76
2022/06/26 15:57:36;;;;;;;3.47;2.00;;;;;;;22.08;95.90;101574.25;10148429;28;20058;-76
2022/06/26 16:02:41;;;;;;;6.70;2.70;;;;;;;22.03;92.07;101570.75;10198738;28;20091;-77
2022/06/26 16:07:41;;;;;;;3.35;2.05;;;;;;;22.02;93.03;101558.69;10202316;28;20063;-76
2022/06/26 16:12:42;;;;;;;3.30;1.90;;;;;;;22.00;88.42;101544.16;10173152;28;20039;-76
2022/06/26 16:17:43;;;;;;;3.50;1.80;;;;;;;21.97;89.79;101550.38;10170122;28;20169;-76
2022/06/26 16:28:03;;;;;;;3.28;2.35;;;;;;;21.95;90.13;101533.91;10201008;28;20123;-75
2022/06/26 16:33:04;;;;;;;5.85;1.88;;;;;;;21.74;88.70;101533.50;10165917;28;20059;-76
2022/06/26 16:38:04;;;;;;;4.38;2.05;;;;;;;21.62;93.03;101538.00;10191616;28;20040;-76
2022/06/26 16:43:05;;;;;;;3.65;1.85;;;;;;;21.28;94.93;101502.84;10166230;28;20039;-76
2022/06/26 16:48:06;;;;;;;5.18;2.08;;;;;;;21.19;96.77;101524.28;10164169;28;20036;-76
2022/06/26 16:53:07;;;;;;;7.35;2.30;;;;;;;20.93;98.12;101527.59;10146866;28;20071;-76
2022/06/26 16:58:07;;;;;;;3.95;2.10;;;;;;;20.91;97.60;101543.88;10172350;28;20051;-76
2022/06/26 17:03:10;;;;;;;6.95;2.47;;;;;;;20.87;99.12;101551.22;10142983;28;20036;-76
2022/06/26 17:08:10;;;;;;;3.10;2.15;;;;;;;20.92;100.00;101562.34;10187208;28;20054;-76
2022/06/26 17:13:12;;;;;;;3.92;2.40;;;;;;;20.89;100.00;101560.13;10177491;28;20044;-77
2022/06/26 17:18:13;;;;;;;5.68;2.08;;;;;;;20.86;100.00;101546.78;10136359;29;20066;-76
2022/06/26 17:23:15;;;;;;;6.43;2.58;;;;;;;20.82;100.00;101549.34;10143025;28;20464;-76
2022/06/26 17:28:16;;;;;;;5.93;2.70;;;;;;;20.72;100.00;101566.31;10153653;28;20090;-76
2022/06/26 17:33:16;;;;;;;4.90;2.90;;;;;;;20.56;100.00;101524.56;10174225;28;20047;-76
2022/06/26 17:38:17;;;;;;;5.07;2.88;;;;;;;20.71;100.00;101542.25;10170702;28;20106;-77
2022/06/26 17:43:18;;;;;;;5.60;2.78;;;;;;;20.64;100.00;101525.88;10179079;28;20050;-75
2022/06/26 17:48:18;;;;;;;5.50;2.63;;;;;;;20.65;100.00;101527.56;10142889;28;20035;-76
2022/06/26 17:53:19;;;;;;;5.85;3.28;;;;;;;20.55;100.00;101536.09;10182469;28;20428;-77
2022/06/26 17:58:20;;;;;;;6.80;2.63;;;;;;;20.36;100.00;101533.31;10187270;28;20055;-76
2022/06/26 18:03:20;;;;;;;4.88;3.13;;;;;;;20.36;100.00;101541.69;10163028;28;20078;-77
2022/06/26 18:08:21;;;;;;;4.47;2.45;;;;;;;20.28;100.00;101545.22;10177089;28;20044;-76
2022/06/26 18:13:21;;;;;;;3.47;2.80;;;;;;;20.20;100.00;101538.31;10180681;28;20058;-76
2022/06/26 18:18:23;;;;;;;6.65;2.75;;;;;;;19.72;100.00;101485.38;10176757;28;20393;-76
2022/06/26 18:23:23;;;;;;;7.60;3.15;;;;;;;19.96;100.00;101549.56;10172731;28;20036;-76
2022/06/26 18:28:24;;;;;;;5.47;3.03;;;;;;;19.70;100.00;101524.81;10161398;28;20441;-75
2022/06/26 18:33:24;;;;;;;7.18;3.78;;;;;;;19.70;100.00;101541.56;10158735;28;20081;-76
2022/06/26 18:38:25;;;;;;;3.20;2.78;;;;;;;19.54;100.00;101535.31;10199317;28;20354;-75
2022/06/26 18:43:26;;;;;;;6.45;4.00;;;;;;;19.63;100.00;101557.00;10149456;28;20044;-75
2022/06/26 18:48:26;;;;;;;7.13;3.83;;;;;;;19.60;100.00;101565.97;10170749;28;20159;-76
2022/06/26 18:53:28;;;;;;;5.88;3.38;;;;;;;19.47;100.00;101548.81;10170496;28;20050;-76
2022/06/26 18:58:29;;;;;;;7.40;3.70;;;;;;;19.52;100.00;101554.31;10138786;28;20060;-75
2022/06/26 19:03:30;;;;;;;6.07;4.13;;;;;;;19.50;100.00;101552.97;10153303;28;20035;-76
2022/06/26 19:08:31;;;;;;;5.60;3.00;;;;;;;19.53;100.00;101558.78;10158761;28;20047;-76
2022/06/26 19:18:51;;;;;;;5.53;3.05;;;;;;;19.01;100.00;101496.28;10173667;28;20051;-75
2022/06/26 19:23:51;;;;;;;6.65;3.30;;;;;;;19.36;100.00;101561.22;10162805;28;20140;-75
2022/06/26 19:28:52;;;;;;;8.25;3.42;;;;;;;19.34;100.00;101555.91;10178333;28;20059;-76
2022/06/26 19:33:52;;;;;;;5.82;3.30;;;;;;;19.29;100.00;101555.16;10173922;28;20484;-75
2022/06/26 19:38:53;;;;;;;7.95;3.30;;;;;;;19.30;100.00;101554.84;10160244;28;20040;-75
2022/06/26 19:43:54;;;;;;;7.88;3.28;;;;;;;19.22;100.00;101543.50;10189508;28;20039;-75
2022/06/26 19:48:54;;;;;;;6.03;3.45;;;;;;;19.19;100.00;101538.53;10164056;28;20055;-75
2022/06/26 19:53:55;;;;;;;4.45;3.00;;;;;;;19.11;100.00;101557.59;10175475;28;20102;-75
2022/06/26 19:58:56;;;;;;;4.97;3.15;;;;;;;19.09;100.00;101596.13;10192283;28;20043;-75
2022/06/26 20:03:58;;;;;;;5.80;3.30;;;;;;;18.42;100.00;101475.09;10169192;28;20051;-73
2022/06/26 20:08:58;;;;;;;6.63;3.17;;;;;;;18.86;100.00;101555.06;10181739;28;20131;-74
2022/06/26 20:13:59;;;;;;;5.28;3.40;;;;;;;19.10;100.00;101589.44;10172454;28;21771;-74
2022/06/26 20:18:59;;;;;;;10.98;3.22;;;;;;;19.02;100.00;101587.28;10178812;28;20078;-74
2022/06/26 20:24:00;;;;;;;3.97;2.50;;;;;;;18.99;100.00;101599.00;10165785;28;20040;-75
2022/06/26 20:29:01;;;;;;;4.55;2.63;;;;;;;18.83;100.00;101595.56;10171938;28;20051;-74
2022/06/26 20:34:01;;;;;;;5.57;2.53;;;;;;;18.93;100.00;101616.91;10192610;28;20036;-74
2022/06/26 20:39:03;;;;;;;5.75;2.70;;;;;;;18.94;100.00;101633.38;10180620;28;20123;-75
2022/06/26 20:44:03;;;;;;;4.97;2.85;;;;;;;18.90;100.00;101631.47;10176100;28;20123;-75
2022/06/26 20:49:04;;;;;;;3.83;2.80;;;;;;;18.33;100.00;101542.66;10167227;28;20399;-76
2022/06/26 20:54:04;;;;;;;6.00;3.40;;;;;;;18.70;100.00;101602.56;10174252;28;20292;-75
2022/06/26 20:59:05;;;;;;;7.22;3.45;;;;;;;18.53;100.00;101591.00;10173524;28;20501;-74
2022/06/26 21:04:06;;;;;;;5.50;3.05;;;;;;;18.69;100.00;101630.78;10173138;28;20044;-75
2022/06/26 21:09:06;;;;;;;5.57;2.90;;;;;;;18.55;100.00;101597.13;10170968;28;20123;-75
2022/06/26 21:14:08;;;;;;;6.60;2.90;;;;;;;18.63;100.00;101624.41;10181566;28;20036;-76
2022/06/26 21:19:12;;;;;;;5.90;2.85;;;;;;;18.59;100.00;101640.03;10211706;28;20048;-76
2022/06/26 21:24:13;;;;;;;10.00;4.65;;;;;;;18.31;100.00;101583.94;10163740;28;20039;-75
2022/06/26 21:29:14;;;;;;;7.40;4.32;;;;;;;18.66;100.00;101625.78;10159416;28;20044;-74
2022/06/26 21:34:14;;;;;;;11.95;6.60;;;;;;;18.65;100.00;101632.47;10176843;28;20485;-75
2022/06/26 21:39:15;;;;;;;6.32;4.53;;;;;;;18.66;100.00;101646.13;10192734;28;20083;-76
2022/06/26 21:44:16;;;;;;;8.57;5.13;;;;;;;18.60;100.00;101622.19;10181545;28;20490;-74
2022/06/26 21:49:16;;;;;;;7.25;5.00;;;;;;;18.56;100.00;101615.50;10180326;28;20530;-75
2022/06/26 21:54:16;;;;;;;6.15;5.28;;;;;;;18.48;100.00;101605.84;10181536;28;20386;-75
2022/06/26 21:59:17;;;;;;;7.75;5.78;;;;;;;18.14;100.00;101556.44;10173848;28;20176;-75
2022/06/26 22:04:18;;;;;;;8.77;5.25;;;;;;;18.15;100.00;101558.13;10180203;28;20048;-75
2022/06/26 22:09:18;;;;;;;9.25;5.90;;;;;;;18.46;100.00;101621.16;10170136;28;20107;-76
2022/06/26 22:14:18;;;;;;;8.02;5.95;;;;;;;18.43;100.00;101607.81;10164816;28;20122;-74
2022/06/26 22:19:19;;;;;;;8.20;6.38;;;;;;;18.35;100.00;101595.31;10166306;28;20040;-75
2022/06/26 22:24:20;;;;;;;10.32;6.60;;;;;;;18.23;100.00;101597.63;10179825;28;20040;-75
2022/06/26 22:29:20;;;;;;;10.95;8.00;;;;;;;18.06;100.00;101598.00;10191005;28;20043;-72
2022/06/26 22:34:21;;;;;;;11.40;8.00;;;;;;;17.99;100.00;101597.50;10151447;28;20040;-74
2022/06/26 22:39:21;;;;;;;11.50;8.13;;;;;;;17.71;100.00;101602.59;10160391;28;20050;-74
2022/06/26 22:44:22;;;;;;;9.98;8.13;;;;;;;17.61;100.00;101564.50;10165672;28;20486;-74
2022/06/26 22:49:22;;;;;;;15.57;9.30;;;;;;;17.19;100.00;101512.06;10211713;28;20083;-74
2022/06/26 22:54:23;;;;;;;10.85;7.63;;;;;;;17.58;100.00;101572.59;10191020;28;20068;-75
2022/06/26 22:59:24;;;;;;;12.00;8.15;;;;;;;17.47;100.00;101564.28;10172384;28;20126;-75
2022/06/26 23:04:24;;;;;;;10.02;7.97;;;;;;;17.23;100.00;101518.72;10163377;28;20175;-76
2022/06/26 23:09:25;;;;;;;10.48;8.35;;;;;;;17.41;100.00;101542.31;10173161;28;20051;-74